createdAt,value
2022-11-26T00:02:24.342Z,100724.72
2022-11-26T00:04:53.105Z,100722.97
2022-11-26T00:07:25.998Z,100723.75
2022-11-26T00:09:58.711Z,100735.53
2022-11-26T00:12:31.109Z,100737.16
2022-11-26T00:15:00.381Z,100735.41
2022-11-26T00:17:27.093Z,100734.50
2022-11-26T00:19:53.809Z,100731.13
2022-11-26T00:22:29.939Z,100739.50
2022-11-26T00:24:57.433Z,100744.50
2022-11-26T00:27:28.569Z,100750.41
2022-11-26T00:29:55.649Z,100748.72
2022-11-26T00:32:25.550Z,100747.81
2022-11-26T00:34:53.441Z,100745.25
2022-11-26T00:37:24.286Z,100753.63
2022-11-26T00:39:51.931Z,100755.25
2022-11-26T00:42:19.378Z,100768.75
2022-11-26T00:44:46.212Z,100765.34
2022-11-26T00:47:12.969Z,100768.69
2022-11-26T00:49:39.766Z,100776.28
2022-11-26T00:52:34.824Z,100776.25
2022-11-26T00:55:34.104Z,100783.78
2022-11-26T00:58:01.661Z,100783.72
2022-11-26T01:00:33.075Z,100784.56
2022-11-26T01:03:01.341Z,100789.56
2022-11-26T01:05:33.634Z,100785.34
2022-11-26T01:08:18.369Z,100791.22
2022-11-26T01:10:45.333Z,100786.94
2022-11-26T01:13:12.260Z,100784.34
2022-11-26T01:15:39.004Z,100790.28
2022-11-26T01:18:16.552Z,100788.53
2022-11-26T01:20:43.772Z,100791.88
2022-11-26T01:23:13.710Z,100788.50
2022-11-26T01:25:41.277Z,100794.38
2022-11-26T01:28:18.059Z,100791.81
2022-11-26T01:30:46.277Z,100790.91
2022-11-26T01:33:13.102Z,100785.84
2022-11-26T01:35:39.828Z,100792.53
2022-11-26T01:38:06.663Z,100792.50
2022-11-26T01:40:49.546Z,100794.19
2022-11-26T01:43:33.436Z,100810.13
2022-11-26T01:46:00.343Z,100805.06
2022-11-26T01:48:34.225Z,100808.41
2022-11-26T01:51:07.677Z,100806.66
2022-11-26T01:53:58.843Z,100799.88
2022-11-26T01:56:40.321Z,100807.41
2022-11-26T01:59:24.974Z,100798.94
2022-11-26T02:01:57.654Z,100795.59
2022-11-26T02:04:49.207Z,100799.75
2022-11-26T02:07:16.345Z,100787.06
2022-11-26T02:09:43.841Z,100784.56
2022-11-26T02:12:10.847Z,100780.38
2022-11-26T02:14:42.341Z,100781.16
2022-11-26T02:17:26.216Z,100772.69
2022-11-26T02:19:52.938Z,100783.63
2022-11-26T02:22:50.004Z,100787.00
2022-11-26T02:25:41.173Z,100782.66
2022-11-26T02:28:41.711Z,100785.97
2022-11-26T02:32:00.397Z,100779.16
2022-11-26T02:34:54.621Z,100779.09
2022-11-26T02:37:59.630Z,100784.97
2022-11-26T02:40:28.273Z,100791.72
2022-11-26T02:42:55.049Z,100793.44
2022-11-26T02:45:30.826Z,100797.63
2022-11-26T02:48:01.333Z,100799.31
2022-11-26T02:50:36.756Z,100795.13
2022-11-26T02:53:05.384Z,100789.22
2022-11-26T02:55:41.212Z,100799.31
2022-11-26T02:58:08.451Z,100796.78
2022-11-26T03:00:41.277Z,100797.59
2022-11-26T03:03:25.962Z,100795.88
2022-11-26T03:05:58.594Z,100797.56
2022-11-26T03:08:27.920Z,100792.47
2022-11-26T03:10:55.003Z,100799.97
2022-11-26T03:13:21.913Z,100796.66
2022-11-26T03:15:48.726Z,100792.44
2022-11-26T03:18:15.720Z,100800.84
2022-11-26T03:20:42.586Z,100803.41
2022-11-26T03:23:09.620Z,100801.69
2022-11-26T03:25:36.795Z,100802.56
2022-11-26T03:28:04.261Z,100805.88
2022-11-26T03:30:31.124Z,100810.06
2022-11-26T03:32:57.939Z,100810.91
2022-11-26T03:35:25.014Z,100807.50
2022-11-26T03:37:51.844Z,100815.91
2022-11-26T03:40:18.850Z,100820.94
2022-11-26T03:42:45.849Z,100835.22
2022-11-26T03:45:13.917Z,100838.59
2022-11-26T03:47:40.740Z,100842.81
2022-11-26T03:50:08.825Z,100839.38
2022-11-26T03:52:35.692Z,100841.03
2022-11-26T03:55:02.534Z,100841.03
2022-11-26T03:57:29.391Z,100846.00
2022-11-26T03:59:56.155Z,100842.66
2022-11-26T04:02:23.059Z,100857.88
2022-11-26T04:04:50.051Z,100857.78
2022-11-26T04:07:16.916Z,100847.66
2022-11-26T04:09:43.848Z,100856.06
2022-11-26T04:12:10.611Z,100857.78
2022-11-26T04:14:37.725Z,100863.63
2022-11-26T04:17:04.699Z,100882.09
2022-11-26T04:19:31.632Z,100882.09
2022-11-26T04:21:58.611Z,100886.25
2022-11-26T04:24:25.972Z,100886.25
2022-11-26T04:26:52.851Z,100879.50
2022-11-26T04:29:19.996Z,100889.63
2022-11-26T04:31:47.048Z,100891.22
2022-11-26T04:34:13.966Z,100896.28
2022-11-26T04:36:40.799Z,100900.47
2022-11-26T04:39:07.934Z,100900.47
2022-11-26T04:41:34.793Z,100903.00
2022-11-26T04:44:01.729Z,100899.59
2022-11-26T04:46:28.509Z,100906.34
2022-11-26T04:48:55.411Z,100903.78
2022-11-26T04:51:22.255Z,100913.00
2022-11-26T04:53:49.031Z,100908.72
2022-11-26T04:56:15.777Z,100907.06
2022-11-26T04:58:42.638Z,100919.69
2022-11-26T05:01:09.496Z,100928.13
2022-11-26T05:03:37.054Z,100917.91
2022-11-26T05:06:04.472Z,100911.13
2022-11-26T05:08:31.431Z,100916.97
2022-11-26T05:10:59.480Z,100922.88
2022-11-26T05:13:26.410Z,100926.22
2022-11-26T05:15:53.208Z,100932.13
2022-11-26T05:18:20.072Z,100936.28
2022-11-26T05:20:47.058Z,100941.34
2022-11-26T05:23:14.043Z,100923.63
2022-11-26T05:25:40.887Z,100921.13
2022-11-26T05:28:07.757Z,100920.28
2022-11-26T05:30:35.010Z,100925.38
2022-11-26T05:33:01.986Z,100925.31
2022-11-26T05:35:29.031Z,100918.47
2022-11-26T05:37:55.903Z,100918.47
2022-11-26T05:40:22.770Z,100919.28
2022-11-26T05:42:49.683Z,100916.66
2022-11-26T05:45:16.611Z,100928.50
2022-11-26T05:47:43.538Z,100921.66
2022-11-26T05:50:11.024Z,100919.94
2022-11-26T05:52:37.963Z,100924.16
2022-11-26T05:55:05.490Z,100926.69
2022-11-26T05:57:32.311Z,100930.00
2022-11-26T05:59:59.127Z,100927.47
2022-11-26T06:02:26.017Z,100927.47
2022-11-26T06:04:52.891Z,100933.31
2022-11-26T06:07:19.707Z,100937.53
2022-11-26T06:09:46.567Z,100935.00
2022-11-26T06:12:13.336Z,100942.59
2022-11-26T06:14:43.226Z,100944.31
2022-11-26T06:17:11.482Z,100943.47
2022-11-26T06:19:39.002Z,100949.38
2022-11-26T06:22:05.861Z,100941.72
2022-11-26T06:24:32.776Z,100941.78
2022-11-26T06:26:59.680Z,100950.22
2022-11-26T06:29:28.100Z,100947.72
2022-11-26T06:31:55.409Z,100953.56
2022-11-26T06:34:22.470Z,100955.28
2022-11-26T06:36:49.339Z,100951.88
2022-11-26T06:39:16.359Z,100957.78
2022-11-26T06:41:43.289Z,100968.72
2022-11-26T06:44:10.239Z,100966.28
2022-11-26T06:46:37.140Z,100958.63
2022-11-26T06:49:05.876Z,100975.47
2022-11-26T06:51:33.768Z,100973.78
2022-11-26T06:54:00.908Z,100987.25
2022-11-26T06:56:29.060Z,100985.50
2022-11-26T06:58:56.154Z,100981.34
2022-11-26T07:13:59.652Z,101000.31
2022-11-26T07:16:26.682Z,101001.19
2022-11-26T07:19:02.488Z,101007.25
2022-11-26T07:21:30.597Z,101005.69
2022-11-26T07:23:58.214Z,101008.28
2022-11-26T07:26:25.280Z,101004.16
2022-11-26T07:28:52.100Z,101002.63
2022-11-26T07:31:22.618Z,101002.72
2022-11-26T07:33:51.535Z,101006.19
2022-11-26T07:36:22.643Z,100999.59
2022-11-26T07:38:50.213Z,100999.75
2022-11-26T07:41:20.363Z,100998.25
2022-11-26T07:43:47.826Z,101005.16
2022-11-26T07:46:19.563Z,101007.88
2022-11-26T07:48:47.733Z,101010.56
2022-11-26T07:56:17.472Z,101011.78
2022-11-26T07:58:21.707Z,101000.19
2022-11-26T08:00:54.278Z,101005.47
2022-11-26T08:03:21.760Z,101008.25
2022-11-26T08:05:48.823Z,101007.75
2022-11-26T08:08:15.734Z,101014.78
2022-11-26T08:10:42.796Z,101015.19
2022-11-26T08:14:12.634Z,101015.63
2022-11-26T08:16:40.782Z,101019.47
2022-11-26T08:19:13.301Z,101016.41
2022-11-26T08:21:41.552Z,101017.66
2022-11-26T08:24:14.940Z,101014.69
2022-11-26T08:26:44.442Z,101026.88
2022-11-26T08:29:13.760Z,101023.00
2022-11-26T08:31:45.792Z,101028.50
2022-11-26T08:34:16.136Z,101025.53
2022-11-26T08:36:44.994Z,101023.44
2022-11-26T08:39:17.751Z,101036.56
2022-11-26T08:41:50.610Z,101031.84
2022-11-26T08:44:24.095Z,101039.84
2022-11-26T08:46:52.555Z,101029.94
2022-11-26T08:49:19.806Z,101033.63
2022-11-26T08:51:46.685Z,101020.34
2022-11-26T08:54:13.632Z,101032.56
2022-11-26T08:56:41.784Z,101028.56
2022-11-26T08:59:08.934Z,101029.50
2022-11-26T09:01:36.281Z,101039.72
2022-11-26T09:04:05.420Z,101027.66
2022-11-26T09:06:37.574Z,101036.63
2022-11-26T09:09:15.431Z,101035.09
2022-11-26T09:11:58.486Z,101034.88
2022-11-26T09:14:31.800Z,101034.47
2022-11-26T09:17:00.569Z,101036.53
2022-11-26T09:19:29.934Z,101031.75
2022-11-26T09:21:57.043Z,101027.75
2022-11-26T09:24:24.646Z,101032.81
2022-11-26T09:26:52.151Z,101034.25
2022-11-26T09:29:23.869Z,101033.66
2022-11-26T09:34:45.851Z,101024.75
2022-11-26T09:37:15.096Z,101015.81
2022-11-26T09:39:42.706Z,101038.59
2022-11-26T09:45:57.968Z,101049.03
2022-11-26T09:48:46.341Z,101033.41
2022-11-26T09:51:21.719Z,101048.63
2022-11-26T09:54:19.810Z,101033.03
2022-11-26T09:57:01.891Z,101037.97
2022-11-26T09:59:43.801Z,101036.75
2022-11-26T10:02:35.308Z,101032.88
2022-11-26T10:05:15.949Z,101029.84
2022-11-26T10:08:14.743Z,101042.16
2022-11-26T10:10:59.979Z,101054.28
2022-11-26T10:14:29.579Z,101059.66
2022-11-26T10:18:11.843Z,101056.41
2022-11-26T10:20:51.392Z,101047.97
2022-11-26T10:23:25.693Z,101037.78
2022-11-26T10:26:41.897Z,101042.13
2022-11-26T10:29:35.558Z,101037.09
2022-11-26T10:32:40.448Z,101037.13
2022-11-26T10:35:15.238Z,101041.41
2022-11-26T10:37:42.149Z,101043.09
2022-11-26T10:40:21.976Z,101041.38
2022-11-26T10:43:08.387Z,101044.81
2022-11-26T10:45:52.137Z,101035.44
2022-11-26T10:48:32.108Z,101033.75
2022-11-26T10:51:13.649Z,101037.13
2022-11-26T10:53:58.977Z,101039.69
2022-11-26T10:56:31.555Z,101042.25
2022-11-26T10:59:04.951Z,101043.94
2022-11-26T11:01:40.089Z,101043.94
2022-11-26T11:04:29.534Z,101049.94
2022-11-26T11:06:57.688Z,101048.22
2022-11-26T11:09:36.414Z,101045.66
2022-11-26T11:12:16.611Z,101046.47
2022-11-26T11:14:45.874Z,101042.22
2022-11-26T11:17:42.244Z,101040.50
2022-11-26T11:20:15.167Z,101034.53
2022-11-26T11:22:47.842Z,101030.25
2022-11-26T11:25:59.401Z,101028.50
2022-11-26T11:28:36.933Z,101025.94
2022-11-26T11:31:45.770Z,101019.09
2022-11-26T11:34:41.189Z,101036.16
2022-11-26T11:37:23.940Z,101029.34
2022-11-26T11:40:07.308Z,101025.09
2022-11-26T11:42:34.565Z,101021.69
2022-11-26T11:45:23.628Z,101025.13
2022-11-26T11:48:00.239Z,101016.63
2022-11-26T11:50:45.871Z,101019.19
2022-11-26T11:53:50.517Z,101021.78
2022-11-26T11:56:39.639Z,101027.75
2022-11-26T12:00:10.768Z,101025.19
2022-11-26T12:03:21.775Z,101022.66
2022-11-26T12:06:22.112Z,101014.13
2022-11-26T12:09:02.924Z,101024.31
2022-11-26T12:12:04.040Z,101018.31
2022-11-26T12:14:43.506Z,101017.47
2022-11-26T12:17:39.467Z,101014.06
2022-11-26T12:20:31.966Z,101014.91
2022-11-26T12:23:55.457Z,101014.94
2022-11-26T12:26:53.578Z,101024.31
2022-11-26T12:29:43.838Z,101026.88
2022-11-26T12:35:43.910Z,101019.22
2022-11-26T12:38:45.833Z,101010.69
2022-11-26T12:41:39.890Z,101005.56
2022-11-26T12:44:38.023Z,101014.09
2022-11-26T12:47:41.455Z,101014.09
2022-11-26T12:51:02.990Z,101025.16
2022-11-26T12:54:10.771Z,101010.69
2022-11-26T12:57:06.698Z,101014.94
2022-11-26T13:04:36.716Z,101020.03
2022-11-26T13:07:26.927Z,101013.19
2022-11-26T13:10:35.905Z,101016.59
2022-11-26T13:13:25.162Z,101011.50
2022-11-26T13:16:48.425Z,101007.25
2022-11-26T13:20:03.243Z,101009.84
2022-11-26T13:22:56.861Z,101015.84
2022-11-26T13:26:17.375Z,101007.31
2022-11-26T13:30:05.095Z,100999.66
2022-11-26T13:33:32.482Z,101000.50
2022-11-26T13:36:33.318Z,100998.84
2022-11-26T13:39:56.940Z,100992.03
2022-11-26T13:42:47.568Z,100984.38
2022-11-26T13:46:02.336Z,100990.34
2022-11-26T13:49:13.708Z,100988.66
2022-11-26T13:51:59.243Z,100984.41
2022-11-26T13:54:43.237Z,100973.31
2022-11-26T13:57:41.006Z,100969.09
2022-11-26T14:00:10.558Z,100971.66
2022-11-26T14:02:44.953Z,100967.38
2022-11-26T14:05:17.570Z,100970.78
2022-11-26T14:07:45.894Z,100969.03
2022-11-26T14:10:36.996Z,100966.50
2022-11-26T14:13:03.835Z,100971.59
2022-11-26T14:15:42.775Z,100969.91
2022-11-26T14:18:13.372Z,100965.66
2022-11-26T14:20:59.803Z,100964.84
2022-11-26T14:23:42.541Z,100957.19
2022-11-26T14:26:38.721Z,100960.59
2022-11-26T14:29:08.459Z,100959.75
2022-11-26T14:31:49.311Z,100956.34
2022-11-26T14:34:45.531Z,100955.47
2022-11-26T14:37:19.086Z,100951.22
2022-11-26T14:39:46.770Z,100947.84
2022-11-26T14:42:19.921Z,100950.38
2022-11-26T14:44:46.824Z,100956.31
2022-11-26T14:47:21.964Z,100959.72
2022-11-26T14:49:55.737Z,100952.09
2022-11-26T14:52:33.750Z,100964.88
2022-11-26T14:55:24.063Z,100955.47
2022-11-26T14:58:03.742Z,100965.69
2022-11-26T15:00:34.292Z,100965.72
2022-11-26T15:03:22.373Z,100958.88
2022-11-26T15:05:49.355Z,100960.53
2022-11-26T15:08:27.695Z,100947.81
2022-11-26T15:11:06.370Z,100958.84
2022-11-26T15:13:42.874Z,100954.59
2022-11-26T15:16:42.975Z,100958.81
2022-11-26T15:19:15.500Z,100959.69
2022-11-26T15:21:43.268Z,100968.19
2022-11-26T15:24:10.176Z,100955.41
2022-11-26T15:26:38.765Z,100956.22
2022-11-26T15:29:32.387Z,100947.72
2022-11-26T15:32:00.196Z,100950.28
2022-11-26T15:34:29.227Z,100950.25
2022-11-26T15:36:56.322Z,100963.00
2022-11-26T15:39:29.080Z,100958.69
2022-11-26T15:42:06.283Z,100963.75
2022-11-26T15:44:42.391Z,100961.19
2022-11-26T15:47:22.003Z,100968.78
2022-11-26T15:49:55.275Z,100971.28
2022-11-26T15:52:32.970Z,100955.94
2022-11-26T15:55:14.686Z,100972.88
2022-11-26T15:57:43.155Z,100968.53
2022-11-26T16:00:35.541Z,100971.00
2022-11-26T16:03:03.149Z,100965.84
2022-11-26T16:05:38.340Z,100965.75
2022-11-26T16:08:31.635Z,100965.66
2022-11-26T16:11:04.985Z,100954.53
2022-11-26T16:13:33.531Z,100963.78
2022-11-26T16:16:34.279Z,100967.91
2022-11-26T16:19:04.372Z,100964.44
2022-11-26T16:21:36.829Z,100963.44
2022-11-26T16:24:22.630Z,100959.09
2022-11-26T16:27:27.667Z,100959.84
2022-11-26T16:29:54.695Z,100972.50
2022-11-26T16:32:22.143Z,100965.63
2022-11-26T16:34:49.151Z,100969.78
2022-11-26T16:37:20.409Z,100959.53
2022-11-26T16:39:48.693Z,100962.03
2022-11-26T16:42:23.148Z,100958.50
2022-11-26T16:44:50.764Z,100966.91
2022-11-26T16:47:32.097Z,100965.09
2022-11-26T16:49:58.937Z,100964.16
2022-11-26T16:52:25.754Z,100964.94
2022-11-26T16:54:53.007Z,100963.16
2022-11-26T16:57:23.745Z,100954.59
2022-11-26T16:59:55.648Z,100967.25
2022-11-26T17:02:24.273Z,100962.06
2022-11-26T17:04:51.234Z,100956.06
2022-11-26T17:07:24.891Z,100962.75
2022-11-26T17:09:53.491Z,100961.00
2022-11-26T17:12:23.456Z,100956.66
2022-11-26T17:17:25.284Z,100958.16
2022-11-26T17:19:52.665Z,100947.91
2022-11-26T17:22:20.189Z,100941.84
2022-11-26T17:24:47.118Z,100944.31
2022-11-26T17:27:17.646Z,100939.97
2022-11-26T17:29:45.700Z,100939.03
2022-11-26T17:32:20.090Z,100939.81
2022-11-26T17:34:48.109Z,100941.44
2022-11-26T17:37:29.685Z,100935.44
2022-11-26T17:39:59.167Z,100936.22
2022-11-26T17:42:26.212Z,100930.25
2022-11-26T17:44:55.394Z,100930.19
2022-11-26T17:47:27.197Z,100936.91
2022-11-26T17:49:54.568Z,100935.19
2022-11-26T17:52:22.856Z,100931.72
2022-11-26T17:54:50.013Z,100935.94
2022-11-26T17:57:17.677Z,100935.91
2022-11-26T17:59:45.070Z,100932.47
2022-11-26T18:02:12.055Z,100930.69
2022-11-26T18:04:38.866Z,100934.88
2022-11-26T18:07:19.748Z,100930.59
2022-11-26T18:09:46.939Z,100935.66
2022-11-26T18:12:25.419Z,100934.81
2022-11-26T18:14:57.382Z,100937.34
2022-11-26T18:17:25.183Z,100938.13
2022-11-26T18:19:52.188Z,100928.00
2022-11-26T18:22:23.373Z,100919.50
2022-11-26T18:24:57.068Z,100917.84
2022-11-26T18:27:30.695Z,100910.19
2022-11-26T18:29:57.822Z,100903.34
2022-11-26T18:32:24.812Z,100902.44
2022-11-26T18:34:52.060Z,100903.22
2022-11-26T18:37:20.370Z,100904.00
2022-11-26T18:39:47.125Z,100904.81
2022-11-26T18:42:36.113Z,100902.22
2022-11-26T18:45:01.666Z,100903.75
2022-11-26T18:47:28.564Z,100901.19
2022-11-26T18:49:55.434Z,100901.91
2022-11-26T18:52:22.210Z,100897.59
2022-11-26T18:54:49.356Z,100901.81
2022-11-26T18:57:16.162Z,100899.97
2022-11-26T18:59:43.093Z,100899.88
2022-11-26T19:02:11.471Z,100902.31
2022-11-26T19:04:39.360Z,100904.81
2022-11-26T19:07:06.297Z,100898.78
2022-11-26T19:09:33.219Z,100897.91
2022-11-26T19:12:02.967Z,100896.22
2022-11-26T19:14:29.821Z,100896.13
2022-11-26T19:16:56.789Z,100885.00
2022-11-26T19:19:23.730Z,100885.84
2022-11-26T19:21:50.592Z,100872.34
2022-11-26T19:24:17.578Z,100863.84
2022-11-26T19:26:47.897Z,100863.78
2022-11-26T19:29:14.818Z,100863.69
2022-11-26T19:31:41.957Z,100854.38
2022-11-26T19:34:14.851Z,100850.06
2022-11-26T19:36:43.068Z,100849.22
2022-11-26T19:39:10.124Z,100853.47
2022-11-26T19:41:37.088Z,100851.75
2022-11-26T19:44:06.950Z,100848.41
2022-11-26T19:46:40.841Z,100844.94
2022-11-26T19:49:11.890Z,100842.44
2022-11-26T19:51:40.244Z,100843.22
2022-11-26T19:54:07.736Z,100850.81
2022-11-26T19:56:38.093Z,100849.88
2022-11-26T19:59:05.474Z,100852.41
2022-11-26T20:01:34.543Z,100860.91
2022-11-26T20:04:06.990Z,100861.72
2022-11-26T20:06:36.113Z,100868.53
2022-11-26T20:09:08.361Z,100867.63
2022-11-26T20:11:40.879Z,100870.22
2022-11-26T20:14:11.218Z,100866.81
2022-11-26T20:16:42.071Z,100871.03
2022-11-26T20:19:10.476Z,100868.50
2022-11-26T20:21:39.307Z,100864.31
2022-11-26T20:24:14.870Z,100862.66
2022-11-26T20:26:45.447Z,100857.47
2022-11-26T20:29:16.843Z,100862.53
2022-11-26T20:31:50.093Z,100868.53
2022-11-26T20:34:23.150Z,100871.84
2022-11-26T20:36:50.554Z,100870.88
2022-11-26T20:39:21.217Z,100870.03
2022-11-26T20:41:48.491Z,100880.13
2022-11-26T20:44:16.064Z,100875.84
2022-11-26T20:46:43.350Z,100879.97
2022-11-26T20:49:13.114Z,100874.00
2022-11-26T20:51:40.053Z,100884.91
2022-11-26T20:54:07.046Z,100884.03
2022-11-26T20:56:34.613Z,100883.13
2022-11-26T20:59:01.812Z,100878.00
2022-11-26T21:01:29.976Z,100888.41
2022-11-26T21:03:58.681Z,100886.06
2022-11-26T21:06:30.496Z,100887.59
2022-11-26T21:09:01.527Z,100886.59
2022-11-26T21:11:29.784Z,100883.13
2022-11-26T21:13:59.960Z,100889.78
2022-11-26T21:16:28.839Z,100886.38
2022-11-26T21:18:56.814Z,100876.94
2022-11-26T21:21:28.506Z,100885.31
2022-11-26T21:23:56.674Z,100886.94
2022-11-26T21:26:26.336Z,100869.13
2022-11-26T21:28:58.680Z,100874.16
2022-11-26T21:31:27.989Z,100872.28
2022-11-26T21:34:06.009Z,100855.34
2022-11-26T21:36:36.088Z,100863.63
2022-11-26T21:39:04.282Z,100858.47
2022-11-26T21:41:33.459Z,100858.41
2022-11-26T21:44:03.487Z,100847.28
2022-11-26T21:46:36.519Z,100839.56
2022-11-26T21:49:06.407Z,100845.34
2022-11-26T21:51:33.280Z,100838.53
2022-11-26T21:54:00.048Z,100841.81
2022-11-26T21:56:30.461Z,100840.00
2022-11-26T21:58:59.143Z,100833.22
2022-11-26T22:01:36.634Z,100820.47
2022-11-26T22:04:17.078Z,100816.25
2022-11-26T22:06:47.884Z,100812.84
2022-11-26T22:09:16.585Z,100806.88
2022-11-26T22:11:45.478Z,100811.91
2022-11-26T22:14:16.186Z,100789.16
2022-11-26T22:16:43.228Z,100791.72
2022-11-26T22:19:10.446Z,100796.75
2022-11-26T22:21:40.925Z,100788.34
2022-11-26T22:24:15.197Z,100777.31
2022-11-26T22:26:43.438Z,100781.50
2022-11-26T22:29:14.117Z,100784.78
2022-11-26T22:31:42.338Z,100786.41
2022-11-26T22:34:21.680Z,100777.06
2022-11-26T22:36:48.943Z,100769.44
2022-11-26T22:39:18.161Z,100765.97
2022-11-26T22:41:47.475Z,100768.47
2022-11-26T22:44:15.873Z,100765.91
2022-11-26T22:46:43.099Z,100758.22
2022-11-26T22:49:17.722Z,100747.94
2022-11-26T22:51:46.956Z,100747.91
2022-11-26T22:54:18.088Z,100749.56
2022-11-26T22:56:44.865Z,100724.25
2022-11-26T22:59:14.446Z,100726.69
2022-11-26T23:01:41.484Z,100725.75
2022-11-26T23:04:10.243Z,100724.81
2022-11-26T23:06:38.868Z,100716.38
2022-11-26T23:09:08.245Z,100721.41
2022-11-26T23:11:41.408Z,100716.25
2022-11-26T23:14:09.607Z,100709.41
2022-11-26T23:16:40.952Z,100710.19
2022-11-26T23:19:08.365Z,100709.22
2022-11-26T23:21:40.009Z,100705.72
2022-11-26T23:24:07.925Z,100698.00
2022-11-26T23:26:37.913Z,100693.72
2022-11-26T23:29:06.347Z,100685.16
2022-11-26T23:31:37.150Z,100689.25
2022-11-26T23:34:05.087Z,100679.88
2022-11-26T23:36:32.806Z,100676.38
2022-11-26T23:39:02.598Z,100672.88
2022-11-26T23:41:29.620Z,100674.31
2022-11-26T23:43:56.575Z,100666.66
2022-11-26T23:46:31.040Z,100661.50
2022-11-26T23:48:58.474Z,100667.25
2022-11-26T23:51:31.306Z,100671.41
2022-11-26T23:53:58.775Z,100657.88
2022-11-26T23:56:32.480Z,100660.38
2022-11-26T23:59:02.937Z,100651.06
